Time;durP1;ratioP1;P1;durP2;ratioP2;P2;SDS_P1;SDS_P2;PMS_P1;PMS_P2;Temp;Humidity;BMP_temperature;BMP_pressure;BME280_temperature;BME280_humidity;BME280_pressure;Samples;Min_cycle;Max_cycle;Signal;HPM_P1;HPM_P2
2023/11/07 00:00:46;;;;;;;6.90;1.73;;;10.90;99.90;;;;;;2082108;28;20025;-68
2023/11/07 00:01:47;;;;;;;6.90;1.63;;;10.90;99.90;;;;;;2081561;28;20032;-68
2023/11/07 00:02:53;;;;;;;4.43;1.65;;;10.90;99.90;;;;;;2083504;28;20021;-68
2023/11/07 00:03:53;;;;;;;4.47;1.67;;;10.90;99.90;;;;;;2081411;28;20029;-68
2023/11/07 00:04:55;;;;;;;7.93;1.83;;;10.90;99.90;;;;;;2082867;28;21309;-69
2023/11/07 00:05:55;;;;;;;5.40;2.03;;;10.90;99.90;;;;;;2082900;28;20018;-67
2023/11/07 00:06:58;;;;;;;4.63;1.70;;;10.90;99.90;;;;;;2081687;28;20033;-68
2023/11/07 00:07:59;;;;;;;4.35;2.42;;;10.90;99.90;;;;;;2082611;28;20018;-68
2023/11/07 00:09:00;;;;;;;4.30;1.80;;;10.90;99.90;;;;;;2081622;28;20029;-69
2023/11/07 00:10:00;;;;;;;5.97;2.35;;;10.90;99.90;;;;;;2081771;28;20064;-69
2023/11/07 00:11:01;;;;;;;5.80;1.67;;;10.90;99.90;;;;;;2083215;28;20464;-69
2023/11/07 00:12:02;;;;;;;6.75;2.08;;;10.90;99.90;;;;;;2082347;28;20029;-69
2023/11/07 00:13:03;;;;;;;8.10;2.22;;;10.90;99.90;;;;;;2081625;28;20101;-69
2023/11/07 00:14:05;;;;;;;6.82;1.83;;;10.90;99.90;;;;;;2082048;28;20025;-68
2023/11/07 00:15:06;;;;;;;7.05;1.80;;;10.90;99.90;;;;;;2080737;28;20674;-69
2023/11/07 00:16:07;;;;;;;6.07;1.90;;;10.90;99.90;;;;;;2082439;28;20033;-68
2023/11/07 00:17:09;;;;;;;8.85;2.10;;;10.90;99.90;;;;;;2081943;28;20021;-68
2023/11/07 00:18:10;;;;;;;4.28;1.60;;;10.90;99.90;;;;;;2082274;28;20027;-68
2023/11/07 00:19:11;;;;;;;4.97;1.70;;;10.90;99.90;;;;;;2081077;28;20028;-67
2023/11/07 00:20:11;;;;;;;6.30;2.25;;;10.90;99.90;;;;;;2081563;28;20029;-69
2023/11/07 00:21:13;;;;;;;5.75;1.73;;;10.90;99.90;;;;;;2084582;28;20036;-67
2023/11/07 00:22:13;;;;;;;5.88;1.60;;;10.90;99.90;;;;;;2080876;28;20068;-68
2023/11/07 00:23:14;;;;;;;8.18;2.00;;;10.90;99.90;;;;;;2081938;28;20028;-68
2023/11/07 00:24:14;;;;;;;5.72;1.60;;;10.90;99.90;;;;;;2083082;28;20373;-68
2023/11/07 00:25:16;;;;;;;5.40;1.80;;;10.90;99.90;;;;;;2082430;28;20038;-68
2023/11/07 00:26:18;;;;;;;6.93;2.17;;;10.80;99.90;;;;;;2081936;28;20070;-68
2023/11/07 00:27:19;;;;;;;5.60;1.73;;;10.90;99.90;;;;;;2081441;28;20578;-68
2023/11/07 00:28:20;;;;;;;4.93;2.17;;;10.90;99.90;;;;;;2080546;28;20406;-68
2023/11/07 00:29:22;;;;;;;6.50;1.88;;;10.90;99.90;;;;;;2080704;28;20068;-68
2023/11/07 00:30:23;;;;;;;6.30;1.77;;;10.80;99.90;;;;;;2080376;28;20033;-68
2023/11/07 00:31:23;;;;;;;9.45;2.40;;;10.80;99.90;;;;;;2081541;28;20798;-69
2023/11/07 00:32:24;;;;;;;6.97;1.48;;;10.80;99.90;;;;;;2081635;28;20031;-68
2023/11/07 00:33:24;;;;;;;4.70;2.22;;;10.80;99.90;;;;;;2080689;28;20033;-69
2023/11/07 00:34:25;;;;;;;6.72;1.83;;;10.90;99.90;;;;;;2082286;28;20029;-68
2023/11/07 00:35:26;;;;;;;4.00;1.70;;;10.80;99.90;;;;;;2083344;28;20032;-67
2023/11/07 00:36:26;;;;;;;4.65;1.80;;;10.80;99.90;;;;;;2082218;28;20033;-68
2023/11/07 00:37:27;;;;;;;3.88;1.50;;;10.80;99.90;;;;;;2083950;28;20035;-68
2023/11/07 00:38:28;;;;;;;5.90;2.10;;;10.80;99.90;;;;;;2076127;28;20641;-68
2023/11/07 00:39:29;;;;;;;7.03;1.85;;;10.90;99.90;;;;;;2074971;28;20037;-69
2023/11/07 00:40:30;;;;;;;6.07;1.95;;;10.80;99.90;;;;;;2079920;28;20037;-68
2023/11/07 00:41:31;;;;;;;6.38;1.88;;;10.80;99.90;;;;;;2080488;28;20053;-68
2023/11/07 00:42:31;;;;;;;6.35;2.10;;;10.90;99.90;;;;;;2083166;28;20572;-69
2023/11/07 00:43:32;;;;;;;5.88;1.77;;;10.90;99.90;;;;;;2081045;28;20029;-69
2023/11/07 00:44:32;;;;;;;6.10;1.50;;;10.80;99.90;;;;;;2081719;28;20485;-68
2023/11/07 00:45:33;;;;;;;5.53;1.92;;;10.80;99.90;;;;;;2082645;28;20021;-68
2023/11/07 00:46:33;;;;;;;6.85;1.92;;;10.80;99.90;;;;;;2084020;28;20028;-68
2023/11/07 00:47:35;;;;;;;5.63;2.13;;;10.80;99.90;;;;;;2084105;28;20021;-68
2023/11/07 00:48:35;;;;;;;7.72;2.17;;;10.80;99.90;;;;;;2083488;28;20029;-67
2023/11/07 00:49:36;;;;;;;4.45;1.85;;;10.80;99.90;;;;;;2082417;28;20071;-67
2023/11/07 00:50:36;;;;;;;2.58;1.88;;;10.90;99.90;;;;;;2082270;28;20080;-68
2023/11/07 00:51:38;;;;;;;6.57;1.90;;;10.80;99.90;;;;;;2082610;28;20106;-68
2023/11/07 00:52:39;;;;;;;3.03;1.30;;;10.90;99.90;;;;;;2083233;28;20432;-68
2023/11/07 00:53:40;;;;;;;6.30;2.08;;;10.90;99.90;;;;;;2082239;28;20025;-68
2023/11/07 00:54:40;;;;;;;4.15;1.40;;;10.90;99.90;;;;;;2081497;28;20048;-69
2023/11/07 00:55:41;;;;;;;5.72;1.60;;;10.90;99.90;;;;;;2082314;28;20035;-68
2023/11/07 00:56:41;;;;;;;5.80;1.98;;;10.90;99.90;;;;;;2081237;28;20045;-68
2023/11/07 00:57:42;;;;;;;3.80;1.65;;;10.90;99.90;;;;;;2081407;28;20053;-68
2023/11/07 00:58:43;;;;;;;4.15;1.13;;;10.90;99.90;;;;;;2083073;28;20530;-67
2023/11/07 00:59:44;;;;;;;8.35;1.85;;;10.90;99.90;;;;;;2082850;28;20029;-69
2023/11/07 01:00:45;;;;;;;5.75;1.35;;;10.90;99.90;;;;;;2082701;28;20501;-69
2023/11/07 01:01:45;;;;;;;3.17;1.27;;;10.80;99.90;;;;;;2081259;28;20013;-68
2023/11/07 01:02:46;;;;;;;3.97;1.92;;;10.90;99.90;;;;;;2082869;28;20045;-68
2023/11/07 01:03:46;;;;;;;4.03;1.60;;;10.90;99.90;;;;;;2082331;28;20072;-67
2023/11/07 01:04:48;;;;;;;2.70;1.40;;;10.80;99.90;;;;;;2081387;28;20532;-68
2023/11/07 01:05:48;;;;;;;4.93;1.70;;;10.80;99.90;;;;;;2081563;28;20025;-68
2023/11/07 01:06:49;;;;;;;4.00;1.58;;;10.80;99.90;;;;;;2082751;28;20113;-68
2023/11/07 01:07:49;;;;;;;4.18;1.63;;;10.80;99.90;;;;;;2083597;28;20057;-68
2023/11/07 01:08:50;;;;;;;4.35;1.55;;;10.80;99.90;;;;;;2082719;28;20022;-68
2023/11/07 01:09:51;;;;;;;6.38;1.63;;;10.80;99.90;;;;;;2080620;28;20096;-68
2023/11/07 01:10:51;;;;;;;5.45;2.08;;;10.80;99.90;;;;;;2084123;28;20025;-68
2023/11/07 01:11:52;;;;;;;5.18;2.15;;;10.80;99.90;;;;;;2081836;28;20556;-68
2023/11/07 01:12:54;;;;;;;4.72;1.52;;;10.80;99.90;;;;;;2083010;28;20028;-68
2023/11/07 01:13:55;;;;;;;7.65;1.38;;;10.80;99.90;;;;;;2082535;28;20101;-68
2023/11/07 01:14:55;;;;;;;3.95;1.40;;;10.80;99.90;;;;;;2082486;28;20040;-68
2023/11/07 01:15:56;;;;;;;6.88;2.10;;;10.80;99.90;;;;;;2082516;28;20391;-68
2023/11/07 01:16:57;;;;;;;5.60;1.75;;;10.80;99.90;;;;;;2083385;28;20028;-68
2023/11/07 01:17:59;;;;;;;2.45;1.27;;;10.80;99.90;;;;;;2081917;28;20053;-68
2023/11/07 01:18:59;;;;;;;4.97;1.75;;;10.80;99.90;;;;;;2082099;28;20025;-69
2023/11/07 01:20:00;;;;;;;4.90;2.00;;;10.80;99.90;;;;;;2081584;28;20078;-68
2023/11/07 01:21:00;;;;;;;9.13;2.25;;;10.80;99.90;;;;;;2082077;28;20026;-68
2023/11/07 01:22:01;;;;;;;4.65;1.75;;;10.80;99.90;;;;;;2080577;28;20036;-67
2023/11/07 01:23:02;;;;;;;4.43;1.60;;;10.80;99.90;;;;;;2081245;28;20656;-68
2023/11/07 01:24:03;;;;;;;3.55;1.25;;;10.80;99.90;;;;;;2082185;28;20106;-69
2023/11/07 01:25:05;;;;;;;5.72;1.60;;;10.80;99.90;;;;;;2074161;28;20080;-67
2023/11/07 01:26:05;;;;;;;10.90;2.58;;;10.80;99.90;;;;;;2066548;28;20033;-68
2023/11/07 01:27:07;;;;;;;5.00;1.50;;;10.80;99.90;;;;;;2073144;28;20479;-67
2023/11/07 01:28:07;;;;;;;4.68;1.80;;;10.80;99.90;;;;;;2081236;28;20025;-68
2023/11/07 01:29:08;;;;;;;4.20;1.70;;;10.80;99.90;;;;;;2081772;28;20607;-68
2023/11/07 01:30:09;;;;;;;4.00;1.65;;;10.80;99.90;;;;;;2082251;28;20503;-70
2023/11/07 01:31:09;;;;;;;3.65;1.75;;;10.80;99.90;;;;;;2081529;28;20531;-69
2023/11/07 01:32:10;;;;;;;4.10;1.52;;;10.80;99.90;;;;;;2080937;28;20437;-69
2023/11/07 01:33:11;;;;;;;6.53;1.88;;;10.80;99.90;;;;;;2082388;28;20082;-67
2023/11/07 01:34:11;;;;;;;3.65;1.48;;;10.80;99.90;;;;;;2081932;28;20033;-68
2023/11/07 01:35:12;;;;;;;3.85;1.75;;;10.80;99.90;;;;;;2081568;28;20037;-67
2023/11/07 01:36:12;;;;;;;7.07;2.00;;;10.80;99.90;;;;;;2081207;28;20064;-68
2023/11/07 01:37:13;;;;;;;5.53;1.40;;;10.80;99.90;;;;;;2081863;28;20819;-67
2023/11/07 01:38:13;;;;;;;4.40;1.50;;;10.80;99.90;;;;;;2078284;28;20034;-68
2023/11/07 01:39:14;;;;;;;6.45;1.90;;;10.80;99.90;;;;;;2076984;28;20068;-68
2023/11/07 01:40:14;;;;;;;4.28;1.52;;;10.80;99.90;;;;;;2081948;28;20028;-68
2023/11/07 01:41:15;;;;;;;8.68;1.33;;;10.80;99.90;;;;;;2082596;28;20017;-68
2023/11/07 01:42:15;;;;;;;4.35;1.48;;;10.80;99.90;;;;;;2082624;28;20032;-68
2023/11/07 01:43:16;;;;;;;4.65;2.33;;;10.80;99.90;;;;;;2076757;28;20032;-67
2023/11/07 01:44:17;;;;;;;5.80;1.48;;;10.80;99.90;;;;;;2074666;28;20120;-68
2023/11/07 01:45:17;;;;;;;3.80;1.30;;;10.80;99.90;;;;;;2081587;28;20051;-68
2023/11/07 01:46:18;;;;;;;5.57;1.60;;;10.80;99.90;;;;;;2081386;28;20870;-69
2023/11/07 01:47:24;;;;;;;5.63;1.60;;;10.80;99.90;;;;;;2082091;28;20036;-68
2023/11/07 01:48:25;;;;;;;4.47;1.52;;;10.80;99.90;;;;;;2081634;28;20029;-68
2023/11/07 01:49:27;;;;;;;3.40;1.35;;;10.80;99.90;;;;;;2081932;28;20028;-68
2023/11/07 01:50:28;;;;;;;4.47;1.60;;;10.80;99.90;;;;;;2081664;28;20085;-69
2023/11/07 01:51:29;;;;;;;5.53;1.40;;;10.80;99.90;;;;;;2081855;28;20101;-69
2023/11/07 01:52:29;;;;;;;4.90;1.30;;;10.80;99.90;;;;;;2081256;28;20029;-67
2023/11/07 01:53:31;;;;;;;4.72;1.40;;;10.80;99.90;;;;;;2074947;28;20061;-68
2023/11/07 01:54:33;;;;;;;4.53;1.50;;;10.80;99.90;;;;;;2074451;28;20025;-67
2023/11/07 01:55:35;;;;;;;4.43;1.60;;;10.80;99.90;;;;;;2082280;28;20033;-68
2023/11/07 01:56:35;;;;;;;4.13;1.60;;;10.90;99.90;;;;;;2082737;28;20505;-68
2023/11/07 01:57:37;;;;;;;5.30;1.48;;;10.80;99.90;;;;;;2082619;28;20021;-68
2023/11/07 01:58:37;;;;;;;4.82;1.42;;;10.80;99.90;;;;;;2081957;28;20358;-68
2023/11/07 01:59:39;;;;;;;4.00;1.50;;;10.90;99.90;;;;;;2083234;28;20029;-70
2023/11/07 02:00:43;;;;;;;6.13;1.40;;;10.90;99.90;;;;;;2082251;28;20026;-68
2023/11/07 02:01:47;;;;;;;4.45;1.27;;;10.90;99.90;;;;;;2081056;28;20664;-70
2023/11/07 02:02:48;;;;;;;2.67;1.42;;;10.90;99.90;;;;;;2082008;28;20520;-68
2023/11/07 02:03:49;;;;;;;3.58;1.20;;;10.90;99.90;;;;;;2083422;28;20017;-68
2023/11/07 02:04:49;;;;;;;4.65;1.38;;;10.90;99.90;;;;;;2083233;28;20029;-69
2023/11/07 02:05:51;;;;;;;2.95;1.30;;;10.90;99.90;;;;;;2082374;28;20108;-69
2023/11/07 02:06:52;;;;;;;4.13;1.23;;;10.90;99.90;;;;;;2082692;28;20022;-69
2023/11/07 02:07:52;;;;;;;5.30;1.95;;;10.90;99.90;;;;;;2081764;28;20078;-69
2023/11/07 02:08:53;;;;;;;3.03;1.27;;;10.90;99.90;;;;;;2082400;28;20490;-68
2023/11/07 02:09:54;;;;;;;5.20;1.70;;;10.90;99.90;;;;;;2082440;28;20660;-68
2023/11/07 02:10:55;;;;;;;7.00;1.80;;;10.90;99.90;;;;;;2084467;28;20155;-70
2023/11/07 02:11:56;;;;;;;3.92;1.40;;;10.90;99.90;;;;;;2082267;28;20494;-68
2023/11/07 02:12:56;;;;;;;2.65;1.20;;;10.90;99.90;;;;;;2084750;28;20028;-68
2023/11/07 02:13:57;;;;;;;5.57;1.45;;;10.90;99.90;;;;;;2085358;28;20025;-67
2023/11/07 02:14:57;;;;;;;4.53;1.55;;;10.90;99.90;;;;;;2082798;28;20147;-67
2023/11/07 02:15:58;;;;;;;4.05;1.65;;;11.00;99.90;;;;;;2082947;28;20049;-69
2023/11/07 02:16:59;;;;;;;4.65;1.60;;;11.00;99.90;;;;;;2082769;28;20448;-68
2023/11/07 02:18:00;;;;;;;3.53;1.48;;;11.00;99.90;;;;;;2082050;28;20579;-68
2023/11/07 02:19:01;;;;;;;2.53;0.98;;;11.00;99.90;;;;;;2081426;28;20025;-68
2023/11/07 02:20:04;;;;;;;2.95;1.42;;;11.00;99.90;;;;;;2082859;28;20094;-69
2023/11/07 02:21:05;;;;;;;3.75;1.48;;;11.00;99.90;;;;;;2082869;28;20021;-69
2023/11/07 02:22:12;;;;;;;2.75;1.58;;;11.00;99.90;;;;;;2074848;28;20074;-68
2023/11/07 02:23:29;;;;;;;4.38;1.17;;;11.00;99.90;;;;;;2076399;28;20037;-69
2023/11/07 02:24:30;;;;;;;4.88;1.52;;;11.00;99.90;;;;;;2084147;28;20500;-68
2023/11/07 02:25:30;;;;;;;3.70;1.65;;;11.00;99.90;;;;;;2083199;28;20029;-67
2023/11/07 02:26:31;;;;;;;4.95;1.23;;;11.00;99.90;;;;;;2082276;28;20129;-67
2023/11/07 02:27:31;;;;;;;2.92;1.20;;;11.00;99.90;;;;;;2082836;28;20029;-69
2023/11/07 02:28:32;;;;;;;5.50;1.20;;;11.00;99.90;;;;;;2083871;28;20035;-69
2023/11/07 02:29:33;;;;;;;7.03;1.35;;;11.00;99.90;;;;;;2083980;28;20025;-68
2023/11/07 02:30:33;;;;;;;3.75;1.02;;;11.10;99.90;;;;;;2083107;28;20032;-69
2023/11/07 02:31:34;;;;;;;3.95;1.33;;;11.10;99.90;;;;;;2083597;28;20055;-69
2023/11/07 02:32:34;;;;;;;2.78;1.15;;;11.10;99.90;;;;;;2083605;28;20025;-68
2023/11/07 02:33:37;;;;;;;3.78;1.40;;;11.10;99.90;;;;;;2083024;28;20054;-69
2023/11/07 02:34:37;;;;;;;2.92;1.00;;;11.10;99.90;;;;;;2082399;28;20032;-68
2023/11/07 02:35:38;;;;;;;2.33;1.13;;;11.10;99.90;;;;;;2084442;28;20028;-67
2023/11/07 02:36:39;;;;;;;2.50;1.17;;;11.10;99.90;;;;;;2082868;28;20032;-68
2023/11/07 02:37:40;;;;;;;4.25;1.30;;;11.10;99.90;;;;;;2081713;28;20083;-68
2023/11/07 02:38:40;;;;;;;4.70;1.23;;;11.10;99.90;;;;;;2083670;28;20055;-67
2023/11/07 02:39:41;;;;;;;5.47;1.35;;;11.10;99.90;;;;;;2081055;28;20028;-68
2023/11/07 02:40:41;;;;;;;2.47;1.08;;;11.10;99.90;;;;;;2082475;28;20026;-69
2023/11/07 02:41:44;;;;;;;4.57;1.77;;;11.10;99.90;;;;;;2083599;28;20029;-68
2023/11/07 02:42:44;;;;;;;5.05;1.35;;;11.10;99.90;;;;;;2084889;28;20028;-68
2023/11/07 02:43:45;;;;;;;4.88;1.25;;;11.10;99.90;;;;;;2083916;28;20025;-69
2023/11/07 02:44:46;;;;;;;4.82;1.65;;;11.10;99.90;;;;;;2081990;28;20087;-68
2023/11/07 02:45:48;;;;;;;6.03;1.50;;;11.10;99.90;;;;;;2083940;28;20053;-68
2023/11/07 02:46:49;;;;;;;4.22;1.20;;;11.10;99.90;;;;;;2082648;28;20351;-68
2023/11/07 02:47:50;;;;;;;2.35;1.08;;;11.10;99.90;;;;;;2084725;28;20049;-68
2023/11/07 02:48:50;;;;;;;4.30;1.63;;;11.10;99.90;;;;;;2083572;28;20013;-68
2023/11/07 02:49:51;;;;;;;3.70;1.20;;;11.10;99.90;;;;;;2082861;28;20073;-69
2023/11/07 02:50:52;;;;;;;5.72;1.58;;;11.10;99.90;;;;;;2083070;28;20026;-69
2023/11/07 02:51:53;;;;;;;4.55;1.65;;;11.10;99.90;;;;;;2084832;28;20030;-68
2023/11/07 02:52:53;;;;;;;4.88;1.50;;;11.10;99.90;;;;;;2084520;28;20545;-68
2023/11/07 02:53:54;;;;;;;3.00;1.13;;;11.10;99.90;;;;;;2084270;28;20028;-68
2023/11/07 02:54:54;;;;;;;4.30;1.25;;;11.10;99.90;;;;;;2081452;28;20040;-67
2023/11/07 02:55:56;;;;;;;2.90;1.10;;;11.10;99.90;;;;;;2083988;28;20684;-68
2023/11/07 02:56:56;;;;;;;2.70;1.17;;;11.10;99.90;;;;;;2075629;28;20034;-68
2023/11/07 02:57:57;;;;;;;4.53;1.17;;;11.10;99.90;;;;;;2075445;28;20014;-68
2023/11/07 02:58:59;;;;;;;4.20;1.73;;;11.10;99.90;;;;;;2083438;28;20429;-68
2023/11/07 02:59:59;;;;;;;1.98;1.15;;;11.10;99.90;;;;;;2082112;28;20061;-67
2023/11/07 03:01:01;;;;;;;6.10;1.45;;;11.10;99.90;;;;;;2083295;28;20032;-68
2023/11/07 03:02:03;;;;;;;4.97;1.20;;;11.10;99.90;;;;;;2083466;28;20025;-68
2023/11/07 03:03:03;;;;;;;7.07;1.58;;;11.10;99.90;;;;;;2081452;28;20047;-69
2023/11/07 03:04:04;;;;;;;2.40;1.33;;;11.10;99.90;;;;;;2083114;28;20022;-69
2023/11/07 03:05:06;;;;;;;4.53;1.77;;;11.10;99.90;;;;;;2083468;28;20029;-68
2023/11/07 03:06:07;;;;;;;4.70;1.33;;;11.10;99.90;;;;;;2083453;28;20045;-68
2023/11/07 03:07:07;;;;;;;3.28;0.88;;;11.10;99.90;;;;;;2083463;28;20116;-69
2023/11/07 03:08:09;;;;;;;4.55;0.93;;;11.10;99.90;;;;;;2082145;28;20032;-68
2023/11/07 03:09:10;;;;;;;6.78;1.73;;;11.10;99.90;;;;;;2081499;28;20020;-68
2023/11/07 03:10:10;;;;;;;3.53;1.27;;;11.10;99.90;;;;;;2082516;28;20095;-68
2023/11/07 03:11:11;;;;;;;3.17;1.30;;;11.10;99.90;;;;;;2082022;28;20038;-68
2023/11/07 03:12:14;;;;;;;4.20;1.25;;;11.10;99.90;;;;;;2083296;28;20036;-68
2023/11/07 03:13:14;;;;;;;2.13;1.00;;;11.10;99.90;;;;;;2082795;28;20025;-68
2023/11/07 03:14:15;;;;;;;4.95;1.00;;;11.10;99.90;;;;;;2082805;28;20029;-67
2023/11/07 03:15:15;;;;;;;3.92;1.10;;;11.10;99.90;;;;;;2083807;28;20522;-68
2023/11/07 03:16:16;;;;;;;3.25;1.75;;;11.10;99.90;;;;;;2083147;28;20114;-68
2023/11/07 03:17:16;;;;;;;2.78;1.42;;;11.10;99.90;;;;;;2082103;28;20048;-69
2023/11/07 03:18:17;;;;;;;2.85;1.00;;;11.10;99.90;;;;;;2082319;28;20064;-68
2023/11/07 03:19:18;;;;;;;5.15;1.63;;;11.10;99.90;;;;;;2082667;28;20044;-68
2023/11/07 03:20:18;;;;;;;2.13;1.40;;;11.10;99.90;;;;;;2084327;28;20203;-68
2023/11/07 03:21:19;;;;;;;1.85;1.23;;;11.10;99.90;;;;;;2074350;28;20037;-69
2023/11/07 03:22:26;;;;;;;3.33;1.10;;;11.10;99.90;;;;;;2073822;28;20110;-68
2023/11/07 03:23:26;;;;;;;2.65;1.20;;;11.10;99.90;;;;;;2083631;28;20094;-69
2023/11/07 03:24:27;;;;;;;3.78;1.30;;;11.10;99.90;;;;;;2084630;28;20021;-68
2023/11/07 03:25:28;;;;;;;4.32;1.70;;;11.10;99.90;;;;;;2082605;28;20362;-67
2023/11/07 03:26:29;;;;;;;2.83;1.38;;;11.10;99.90;;;;;;2084414;28;20044;-70
2023/11/07 03:27:30;;;;;;;2.13;0.82;;;11.10;99.90;;;;;;2083961;28;20032;-68
2023/11/07 03:28:30;;;;;;;2.88;1.10;;;11.20;99.90;;;;;;2083465;28;20022;-68
2023/11/07 03:29:31;;;;;;;2.60;1.00;;;11.20;99.90;;;;;;2074710;28;20037;-70
2023/11/07 03:30:31;;;;;;;6.30;1.40;;;11.20;99.90;;;;;;2075301;28;20068;-68
2023/11/07 03:31:32;;;;;;;2.38;1.02;;;11.20;99.90;;;;;;2082819;28;20025;-68
2023/11/07 03:32:33;;;;;;;4.95;1.25;;;11.20;99.90;;;;;;2082876;28;20055;-68
2023/11/07 03:33:33;;;;;;;2.63;0.95;;;11.20;99.90;;;;;;2083126;28;20378;-68
2023/11/07 03:34:34;;;;;;;2.20;1.13;;;11.20;99.90;;;;;;2082842;28;20652;-68
2023/11/07 03:35:34;;;;;;;2.17;1.00;;;11.20;99.90;;;;;;2074345;28;20026;-69
2023/11/07 03:36:35;;;;;;;3.55;1.00;;;11.20;99.90;;;;;;2075270;28;20030;-68
2023/11/07 03:37:36;;;;;;;3.65;0.98;;;11.20;99.90;;;;;;2081875;28;20112;-68
2023/11/07 03:38:40;;;;;;;8.60;1.20;;;11.20;99.90;;;;;;2081677;28;20026;-68
2023/11/07 03:39:40;;;;;;;2.05;1.10;;;11.20;99.90;;;;;;2081129;28;20028;-68
2023/11/07 03:40:41;;;;;;;4.93;1.27;;;11.20;99.90;;;;;;2080540;28;20029;-67
2023/11/07 03:41:41;;;;;;;2.55;1.02;;;11.30;99.90;;;;;;2081708;28;20037;-68
2023/11/07 03:42:42;;;;;;;4.63;1.23;;;11.30;99.90;;;;;;2082260;28;20102;-67
2023/11/07 03:43:42;;;;;;;4.30;1.00;;;11.30;99.90;;;;;;2080594;28;20056;-68
2023/11/07 03:44:43;;;;;;;2.42;1.00;;;11.30;99.90;;;;;;2082012;28;20029;-69
2023/11/07 03:45:44;;;;;;;4.40;1.25;;;11.30;99.90;;;;;;2082551;28;20825;-68
2023/11/07 03:46:44;;;;;;;2.08;1.00;;;11.30;99.90;;;;;;2083074;28;20021;-68
2023/11/07 03:47:45;;;;;;;4.05;1.05;;;11.30;99.90;;;;;;2082592;28;20071;-67
2023/11/07 03:48:45;;;;;;;2.15;0.90;;;11.30;99.90;;;;;;2082290;28;20152;-68
2023/11/07 03:49:46;;;;;;;2.65;1.08;;;11.30;99.90;;;;;;2085456;28;20107;-67
2023/11/07 03:50:46;;;;;;;1.98;1.00;;;11.30;99.90;;;;;;2082047;28;20082;-69
2023/11/07 03:51:47;;;;;;;5.10;1.10;;;11.30;99.90;;;;;;2082027;28;20021;-68
2023/11/07 03:52:48;;;;;;;3.45;1.33;;;11.30;99.90;;;;;;2083546;28;20045;-67
2023/11/07 03:53:49;;;;;;;3.50;1.00;;;11.30;99.90;;;;;;2083574;28;20033;-67
2023/11/07 03:54:49;;;;;;;4.00;1.23;;;11.30;99.90;;;;;;2082562;28;20108;-69
2023/11/07 03:55:50;;;;;;;3.13;1.15;;;11.30;99.90;;;;;;2073732;28;20026;-68
2023/11/07 03:56:51;;;;;;;3.50;0.90;;;11.30;99.90;;;;;;2074198;28;20030;-69
2023/11/07 03:57:52;;;;;;;2.65;1.17;;;11.30;99.90;;;;;;2083810;28;20490;-68
2023/11/07 03:58:52;;;;;;;2.22;0.80;;;11.30;99.90;;;;;;2084454;28;20116;-68
2023/11/07 03:59:53;;;;;;;3.05;1.42;;;11.40;99.90;;;;;;2082575;28;20593;-68
2023/11/07 04:00:53;;;;;;;3.10;1.25;;;11.30;99.90;;;;;;2083801;28;20563;-69
2023/11/07 04:01:55;;;;;;;3.35;0.90;;;11.40;99.90;;;;;;2081623;28;20091;-69
2023/11/07 04:02:56;;;;;;;4.45;1.17;;;11.40;99.90;;;;;;2083727;28;20017;-68
2023/11/07 04:03:56;;;;;;;1.25;0.82;;;11.30;99.90;;;;;;2084308;28;20029;-68
2023/11/07 04:04:57;;;;;;;2.20;0.82;;;11.40;99.90;;;;;;2083106;28;20032;-68
2023/11/07 04:05:57;;;;;;;2.00;0.80;;;11.30;99.90;;;;;;2084750;28;20031;-67
2023/11/07 04:06:58;;;;;;;2.10;0.90;;;11.40;99.90;;;;;;2083367;28;20354;-69
2023/11/07 04:07:59;;;;;;;1.60;0.98;;;11.40;99.90;;;;;;2081386;28;20413;-69
2023/11/07 04:09:00;;;;;;;3.17;1.00;;;11.30;99.90;;;;;;2081614;28;20110;-69
2023/11/07 04:10:01;;;;;;;2.95;1.23;;;11.40;99.90;;;;;;2082901;28;20037;-68
2023/11/07 04:11:02;;;;;;;1.88;0.90;;;11.40;99.90;;;;;;2081397;28;20116;-68
2023/11/07 04:12:03;;;;;;;4.55;0.80;;;11.40;99.90;;;;;;2081402;28;20034;-68
2023/11/07 04:13:05;;;;;;;2.70;0.85;;;11.40;99.90;;;;;;2082549;28;20059;-68
2023/11/07 04:14:05;;;;;;;1.88;0.95;;;11.40;99.90;;;;;;2083252;28;20026;-68
2023/11/07 04:15:09;;;;;;;4.35;1.35;;;11.40;99.90;;;;;;2082703;28;20052;-69
2023/11/07 04:16:09;;;;;;;0.98;0.80;;;11.40;99.90;;;;;;2085154;28;20021;-68
2023/11/07 04:17:10;;;;;;;1.73;0.70;;;11.40;99.90;;;;;;2081460;28;20041;-69
2023/11/07 04:18:10;;;;;;;4.88;1.20;;;11.40;99.90;;;;;;2083389;28;20462;-70
2023/11/07 04:19:11;;;;;;;1.55;0.90;;;11.40;99.90;;;;;;2083432;28;20064;-68
2023/11/07 04:20:12;;;;;;;1.45;0.90;;;11.40;99.90;;;;;;2082674;28;20643;-68
2023/11/07 04:21:12;;;;;;;1.70;1.23;;;11.40;99.90;;;;;;2082224;28;20504;-68
2023/11/07 04:22:13;;;;;;;3.25;1.00;;;11.40;99.90;;;;;;2082792;28;20025;-68
2023/11/07 04:23:15;;;;;;;3.80;1.17;;;11.40;99.90;;;;;;2082839;28;20040;-69
2023/11/07 04:24:15;;;;;;;2.17;0.93;;;11.40;99.90;;;;;;2083385;28;20036;-67
2023/11/07 04:25:19;;;;;;;3.55;1.05;;;11.40;99.90;;;;;;2081474;28;20454;-69
2023/11/07 04:26:19;;;;;;;1.85;1.00;;;11.40;99.90;;;;;;2082990;28;20026;-67
2023/11/07 04:27:20;;;;;;;2.08;1.05;;;11.40;99.90;;;;;;2082372;28;20140;-68
2023/11/07 04:28:21;;;;;;;3.72;1.00;;;11.40;99.90;;;;;;2081094;28;20150;-67
2023/11/07 04:29:21;;;;;;;3.50;0.85;;;11.40;99.90;;;;;;2081481;28;20041;-69
2023/11/07 04:30:22;;;;;;;1.83;0.88;;;11.40;99.90;;;;;;2081795;28;20037;-68
2023/11/07 04:31:23;;;;;;;1.70;0.70;;;11.40;99.90;;;;;;2081358;28;20028;-67
2023/11/07 04:32:23;;;;;;;2.03;0.75;;;11.40;99.90;;;;;;2082350;28;20025;-67
2023/11/07 04:33:24;;;;;;;2.15;0.80;;;11.40;99.90;;;;;;2083068;28;20029;-68
2023/11/07 04:34:24;;;;;;;1.50;0.90;;;11.40;99.90;;;;;;2081655;28;20082;-68
2023/11/07 04:35:25;;;;;;;2.92;0.95;;;11.40;99.90;;;;;;2082726;28;20044;-67
2023/11/07 04:36:25;;;;;;;2.20;1.00;;;11.40;99.90;;;;;;2083907;28;20064;-67
2023/11/07 04:37:26;;;;;;;2.00;0.93;;;11.40;99.90;;;;;;2083110;28;20540;-67
2023/11/07 04:38:30;;;;;;;2.35;1.10;;;11.40;99.90;;;;;;2082444;28;20052;-68
2023/11/07 04:39:30;;;;;;;2.28;0.90;;;11.40;99.90;;;;;;2081111;28;20025;-68
2023/11/07 04:40:31;;;;;;;1.85;1.00;;;11.40;99.90;;;;;;2080597;28;20044;-68
2023/11/07 04:41:35;;;;;;;4.00;1.00;;;11.40;99.90;;;;;;2082857;28;20032;-68
2023/11/07 04:42:36;;;;;;;6.10;1.17;;;11.40;99.90;;;;;;2081648;28;20059;-67
2023/11/07 04:43:37;;;;;;;1.48;1.15;;;11.40;99.90;;;;;;2082797;28;20021;-68
2023/11/07 04:44:38;;;;;;;2.47;0.73;;;11.40;99.90;;;;;;2082496;28;20025;-67
2023/11/07 04:45:38;;;;;;;3.17;1.02;;;11.40;99.90;;;;;;2083498;28;20520;-67
2023/11/07 04:46:39;;;;;;;1.77;1.17;;;11.40;99.90;;;;;;2085290;28;20096;-68
2023/11/07 04:47:40;;;;;;;2.35;0.90;;;11.50;99.90;;;;;;2083959;28;20064;-68
2023/11/07 04:48:40;;;;;;;2.58;0.80;;;11.40;99.90;;;;;;2081774;28;20043;-68
2023/11/07 04:49:43;;;;;;;2.35;0.93;;;11.40;99.90;;;;;;2081623;28;20078;-68
2023/11/07 04:50:44;;;;;;;1.90;0.90;;;11.40;99.90;;;;;;2081215;28;20036;-67
2023/11/07 04:51:45;;;;;;;1.65;0.77;;;11.40;99.90;;;;;;2082280;28;20024;-69
2023/11/07 04:52:47;;;;;;;3.25;0.88;;;11.40;99.90;;;;;;2081548;28;20013;-68
2023/11/07 04:53:48;;;;;;;1.63;0.90;;;11.40;99.90;;;;;;2082995;28;20071;-68
2023/11/07 04:54:48;;;;;;;2.45;1.15;;;11.40;99.90;;;;;;2080216;28;20082;-67
2023/11/07 04:55:49;;;;;;;4.13;1.02;;;11.40;99.90;;;;;;2080616;28;20061;-67
2023/11/07 04:56:50;;;;;;;3.92;0.93;;;11.40;99.90;;;;;;2080898;28;20082;-67
2023/11/07 04:57:50;;;;;;;3.33;0.88;;;11.40;99.90;;;;;;2080676;28;20478;-68
2023/11/07 04:58:51;;;;;;;1.65;1.00;;;11.50;99.90;;;;;;2084930;28;20032;-66
2023/11/07 04:59:51;;;;;;;4.20;0.93;;;11.40;99.90;;;;;;2081715;28;20026;-68
2023/11/07 05:00:55;;;;;;;1.52;0.98;;;11.40;99.90;;;;;;2080650;28;20021;-68
2023/11/07 05:01:56;;;;;;;2.00;1.10;;;11.40;99.90;;;;;;2081035;28;20053;-68
2023/11/07 05:02:56;;;;;;;2.83;0.90;;;11.40;99.90;;;;;;2082314;28;20032;-69
2023/11/07 05:03:57;;;;;;;2.13;0.98;;;11.40;99.90;;;;;;2082138;28;20029;-68
2023/11/07 05:04:58;;;;;;;3.47;1.10;;;11.50;99.90;;;;;;2082153;28;20036;-67
2023/11/07 05:05:59;;;;;;;2.38;1.10;;;11.50;99.90;;;;;;2082221;28;20160;-67
2023/11/07 05:07:00;;;;;;;3.30;0.90;;;11.50;99.90;;;;;;2081779;28;20370;-68
2023/11/07 05:08:01;;;;;;;3.20;1.17;;;11.50;99.90;;;;;;2080933;28;20018;-67
2023/11/07 05:09:07;;;;;;;1.50;1.00;;;11.50;99.90;;;;;;2081771;28;20025;-69
2023/11/07 05:10:12;;;;;;;5.32;1.45;;;11.50;99.90;;;;;;2084003;28;20110;-67
2023/11/07 05:11:12;;;;;;;2.70;1.20;;;11.40;99.90;;;;;;2080578;28;20025;-67
2023/11/07 05:12:13;;;;;;;2.22;0.95;;;11.50;99.90;;;;;;2080981;28;20029;-67
2023/11/07 05:13:14;;;;;;;3.88;1.25;;;11.50;99.90;;;;;;2079557;28;20033;-67
2023/11/07 05:14:15;;;;;;;3.00;1.10;;;11.40;99.90;;;;;;2080163;28;21455;-67
2023/11/07 05:15:15;;;;;;;1.63;0.82;;;11.50;99.90;;;;;;2083159;28;20064;-67
2023/11/07 05:16:16;;;;;;;3.25;1.10;;;11.50;99.90;;;;;;2081552;28;20025;-68
2023/11/07 05:17:17;;;;;;;1.38;1.02;;;11.50;99.90;;;;;;2081508;28;20029;-67
2023/11/07 05:18:18;;;;;;;3.50;1.02;;;11.50;99.90;;;;;;2083124;28;20032;-68